CheckWX is a tool to help pilots better visualize weather data.  It is not intended as a substitute for an official pre-flight weather briefing.

07:06:29 UTC

KBIE METAR
Beatrice Municipal Airport
Beatrice, Nebraska, USA
Current

11 mins ago

KBIE 210655Z AUTO 07015G20KT 7SM OVC006 09/08 A2980 RMK AO2 T00900083
Observed
May-21 @ 06:55 UTC
Wind
  • 070° at 15 KTS
  • Gusting to 20 KTS
Visibility
7 SM
Flight Rules
IFR
Cloud Levels
  • Overcast at 600' AGL
Temperature
C / 48°F
Dewpoint
C / 46°F
Humidity
94%
Altimeter
29.8" Hg
Pressure
1009.12 hPa
Previous

31 mins ago

KBIE 210635Z AUTO 08013G19KT 7SM OVC008 09/08 A2982 RMK AO2 T00900081
Observed
May-21 @ 06:35 UTC
Wind
  • 080° at 13 KTS
  • Gusting to 19 KTS
Visibility
7 SM
Flight Rules
IFR
Cloud Levels
  • Overcast at 800' AGL
Temperature
C / 48°F
Dewpoint
C / 46°F
Humidity
94%
Altimeter
29.82" Hg
Pressure
1009.82 hPa
Previous

51 mins ago

KBIE 210615Z AUTO 07015G22KT 10SM OVC008 09/08 A2982 RMK AO2 T00900080
Observed
May-21 @ 06:15 UTC
Wind
  • 070° at 15 KTS
  • Gusting to 22 KTS
Visibility
10 SM
Flight Rules
IFR
Cloud Levels
  • Overcast at 800' AGL
Temperature
C / 48°F
Dewpoint
C / 46°F
Humidity
94%
Altimeter
29.82" Hg
Pressure
1009.82 hPa